createdAt,value
2023-07-14T00:01:28.020Z,14.08
2023-07-14T00:03:58.941Z,14.14
2023-07-14T00:06:27.303Z,14.11
2023-07-14T00:08:56.099Z,14.15
2023-07-14T00:11:26.193Z,14.15
2023-07-14T00:13:55.721Z,14.12
2023-07-14T00:16:27.490Z,14.12
2023-07-14T00:18:57.529Z,14.11
2023-07-14T00:21:28.065Z,14.11
2023-07-14T00:23:59.712Z,14.12
2023-07-14T00:26:28.732Z,14.11
2023-07-14T00:28:57.172Z,14.11
2023-07-14T00:31:25.541Z,14.13
2023-07-14T00:33:55.449Z,14.11
2023-07-14T00:36:25.348Z,14.15
2023-07-14T00:38:53.701Z,14.14
2023-07-14T00:41:24.987Z,14.17
2023-07-14T00:43:53.914Z,14.16
2023-07-14T00:46:28.455Z,14.19
2023-07-14T00:48:59.661Z,14.20
2023-07-14T00:51:31.057Z,14.19
2023-07-14T00:53:59.937Z,14.18
2023-07-14T00:56:36.344Z,14.20
2023-07-14T00:59:07.340Z,14.20
2023-07-14T01:01:35.729Z,14.20
2023-07-14T01:04:04.267Z,14.13
2023-07-14T01:06:36.393Z,14.17
2023-07-14T01:09:09.935Z,14.18
2023-07-14T01:11:40.563Z,14.21
2023-07-14T01:14:11.794Z,14.24
2023-07-14T01:16:41.424Z,14.25
2023-07-14T01:19:12.886Z,14.24
2023-07-14T01:21:43.600Z,14.24
2023-07-14T01:24:17.071Z,14.22
2023-07-14T01:26:57.464Z,14.23
2023-07-14T01:29:26.234Z,14.25
2023-07-14T01:31:55.343Z,14.21
2023-07-14T01:34:23.997Z,14.19
2023-07-14T01:36:57.974Z,14.20
2023-07-14T01:39:26.937Z,14.19
2023-07-14T01:41:56.817Z,14.21
2023-07-14T01:44:25.844Z,14.23
2023-07-14T01:46:55.139Z,14.25
2023-07-14T01:49:40.141Z,14.24
2023-07-14T01:52:14.506Z,14.23
2023-07-14T01:54:46.936Z,14.20
2023-07-14T01:57:19.748Z,14.16
2023-07-14T01:59:50.742Z,14.11
2023-07-14T02:02:25.346Z,14.09
2023-07-14T02:04:54.247Z,14.16
2023-07-14T02:07:22.622Z,14.15
2023-07-14T02:09:51.492Z,14.10
2023-07-14T02:12:28.605Z,14.08
2023-07-14T02:15:00.425Z,14.07
2023-07-14T02:17:32.501Z,14.00
2023-07-14T02:20:22.985Z,14.08
2023-07-14T02:22:52.403Z,14.06
2023-07-14T02:25:21.787Z,14.05
2023-07-14T02:27:51.700Z,13.98
2023-07-14T02:30:22.737Z,13.93
2023-07-14T02:32:53.671Z,13.95
2023-07-14T02:35:25.958Z,13.97
2023-07-14T02:38:05.578Z,13.92
2023-07-14T02:40:38.551Z,13.92
2023-07-14T02:43:10.192Z,13.91
2023-07-14T02:45:43.855Z,13.85
2023-07-14T02:48:15.473Z,13.86
2023-07-14T02:50:44.167Z,13.84
2023-07-14T02:53:12.734Z,13.86
2023-07-14T02:55:42.373Z,13.86
2023-07-14T02:58:12.495Z,13.84
2023-07-14T03:00:40.870Z,13.80
2023-07-14T03:03:09.469Z,13.86
2023-07-14T03:05:38.182Z,13.84
2023-07-14T03:08:09.095Z,13.84
2023-07-14T03:10:37.517Z,13.85
2023-07-14T03:13:06.105Z,13.87
2023-07-14T03:15:35.897Z,13.86
2023-07-14T03:18:04.381Z,13.87
2023-07-14T03:20:33.420Z,13.90
2023-07-14T03:23:01.951Z,13.88
2023-07-14T03:25:30.339Z,13.90
2023-07-14T03:27:58.822Z,13.94
2023-07-14T03:30:27.729Z,13.92
2023-07-14T03:32:57.540Z,13.94
2023-07-14T03:35:26.222Z,13.94
2023-07-14T03:37:54.642Z,13.97
2023-07-14T03:40:23.098Z,14.00
2023-07-14T03:42:51.593Z,14.07
2023-07-14T03:45:20.024Z,14.07
2023-07-14T03:47:48.587Z,14.06
2023-07-14T03:50:18.696Z,14.10
2023-07-14T03:52:47.603Z,14.16
2023-07-14T03:55:16.210Z,14.08
2023-07-14T03:58:00.754Z,14.12
2023-07-14T04:00:32.279Z,14.18
2023-07-14T04:03:01.488Z,14.23
2023-07-14T04:05:31.333Z,14.23
2023-07-14T04:08:00.083Z,14.23
2023-07-14T04:10:28.602Z,14.23
2023-07-14T04:12:58.915Z,14.28
2023-07-14T04:15:27.273Z,14.31
2023-07-14T04:17:55.864Z,14.33
2023-07-14T04:20:24.253Z,14.35
2023-07-14T04:22:55.162Z,14.35
2023-07-14T04:25:23.797Z,14.37
2023-07-14T04:27:53.885Z,14.41
2023-07-14T04:30:22.702Z,14.44
2023-07-14T04:32:53.487Z,14.45
2023-07-14T04:35:21.929Z,14.47
2023-07-14T04:37:50.281Z,14.50
2023-07-14T04:40:35.888Z,14.52
2023-07-14T04:43:05.333Z,14.52
2023-07-14T04:45:33.877Z,14.51
2023-07-14T04:48:02.336Z,14.58
2023-07-14T04:50:30.809Z,14.47
2023-07-14T04:53:00.319Z,14.47
2023-07-14T04:55:30.166Z,14.49
2023-07-14T04:57:58.857Z,14.57
2023-07-14T05:00:27.566Z,14.62
2023-07-14T05:02:57.572Z,14.62
2023-07-14T05:05:27.773Z,14.63
2023-07-14T05:07:56.840Z,14.60
2023-07-14T05:10:26.930Z,14.59
2023-07-14T05:12:58.328Z,14.54
2023-07-14T05:15:27.664Z,14.52
2023-07-14T05:17:56.867Z,14.44
2023-07-14T05:20:26.192Z,14.43
2023-07-14T05:22:55.731Z,14.46
2023-07-14T05:25:24.630Z,14.47
2023-07-14T05:27:53.280Z,14.43
2023-07-14T05:30:23.728Z,14.48
2023-07-14T05:32:52.379Z,14.43
2023-07-14T05:35:21.544Z,14.36
2023-07-14T05:37:49.952Z,14.37
2023-07-14T05:40:19.245Z,14.39
2023-07-14T05:42:49.129Z,14.48
2023-07-14T05:45:18.233Z,14.40
2023-07-14T05:47:49.353Z,14.40
2023-07-14T05:50:18.983Z,14.46
2023-07-14T05:52:47.709Z,14.67
2023-07-14T05:55:16.934Z,14.91
2023-07-14T05:57:46.322Z,15.11
2023-07-14T06:00:18.350Z,15.21
2023-07-14T06:02:51.504Z,15.26
2023-07-14T06:05:20.870Z,15.22
2023-07-14T06:07:49.923Z,15.19
2023-07-14T06:10:19.029Z,15.21
2023-07-14T06:12:47.548Z,15.19
2023-07-14T06:15:16.597Z,15.34
2023-07-14T06:17:45.272Z,15.56
2023-07-14T06:20:15.314Z,15.93
2023-07-14T06:22:43.844Z,16.17
2023-07-14T06:25:12.361Z,16.19
2023-07-14T06:27:40.871Z,16.00
2023-07-14T06:30:10.801Z,15.78
2023-07-14T06:32:40.369Z,15.97
2023-07-14T06:35:11.603Z,16.33
2023-07-14T06:37:42.400Z,16.66
2023-07-14T06:40:12.901Z,16.63
2023-07-14T06:42:41.287Z,16.64
2023-07-14T06:45:10.721Z,16.54
2023-07-14T06:47:39.266Z,16.65
2023-07-14T06:50:08.517Z,16.59
2023-07-14T06:52:39.301Z,16.38
2023-07-14T06:55:10.911Z,16.53
2023-07-14T06:57:39.567Z,16.56
2023-07-14T07:00:12.333Z,16.65
2023-07-14T07:02:41.272Z,16.74
2023-07-14T07:05:11.937Z,16.75
2023-07-14T07:07:40.445Z,16.76
2023-07-14T07:10:11.596Z,16.52
2023-07-14T07:12:40.685Z,16.58
2023-07-14T07:15:09.872Z,17.07
2023-07-14T07:17:40.158Z,17.15
2023-07-14T07:20:10.663Z,17.05
2023-07-14T07:22:39.353Z,17.05
2023-07-14T07:25:08.825Z,16.98
2023-07-14T07:27:38.795Z,16.76
2023-07-14T07:30:10.562Z,16.50
2023-07-14T07:32:41.574Z,16.18
2023-07-14T07:35:11.484Z,16.03
2023-07-14T07:37:40.268Z,15.96
2023-07-14T07:40:10.553Z,15.89
2023-07-14T07:42:41.816Z,15.83
2023-07-14T07:45:11.046Z,15.83
2023-07-14T07:47:39.667Z,15.94
2023-07-14T07:50:09.920Z,15.94
2023-07-14T07:52:38.476Z,15.98
2023-07-14T07:55:07.285Z,16.09
2023-07-14T07:57:35.811Z,16.23
2023-07-14T08:00:07.917Z,16.52
2023-07-14T08:02:37.578Z,16.92
2023-07-14T08:05:07.039Z,17.29
2023-07-14T08:07:36.154Z,17.62
2023-07-14T08:10:04.735Z,18.03
2023-07-14T08:12:33.315Z,18.13
2023-07-14T08:15:02.120Z,18.13
2023-07-14T08:17:55.350Z,18.14
2023-07-14T08:20:24.724Z,18.22
2023-07-14T08:22:53.201Z,18.31
2023-07-14T08:25:23.047Z,18.39
2023-07-14T08:27:52.040Z,18.36
2023-07-14T08:30:21.727Z,18.13
2023-07-14T08:32:52.140Z,17.74
2023-07-14T08:35:21.709Z,17.52
2023-07-14T08:37:51.107Z,17.22
2023-07-14T08:40:27.362Z,16.91
2023-07-14T08:43:21.894Z,16.75
2023-07-14T08:45:56.598Z,16.61
2023-07-14T08:48:35.664Z,16.59
2023-07-14T08:51:09.648Z,16.62
2023-07-14T08:53:38.264Z,16.70
2023-07-14T08:56:08.153Z,16.75
2023-07-14T08:58:41.090Z,16.76
2023-07-14T09:01:14.827Z,16.67
2023-07-14T09:03:47.463Z,16.49
2023-07-14T09:06:25.542Z,16.53
2023-07-14T09:08:55.948Z,16.51
2023-07-14T09:11:45.137Z,16.55
2023-07-14T09:14:31.975Z,16.51
2023-07-14T09:17:06.444Z,16.41
2023-07-14T09:19:46.754Z,16.45
2023-07-14T09:22:21.129Z,16.54
2023-07-14T09:24:57.997Z,16.64
2023-07-14T09:27:29.213Z,16.73
2023-07-14T09:29:58.435Z,16.74
2023-07-14T09:32:35.768Z,16.88
2023-07-14T09:35:15.279Z,17.08
2023-07-14T09:37:49.249Z,17.35
2023-07-14T09:40:21.070Z,17.65
2023-07-14T09:42:52.432Z,17.96
2023-07-14T09:45:23.357Z,18.28
2023-07-14T09:47:57.952Z,18.31
2023-07-14T09:50:28.756Z,18.20
2023-07-14T09:52:59.525Z,18.28
2023-07-14T09:55:28.180Z,18.19
2023-07-14T09:58:10.964Z,18.03
2023-07-14T10:00:42.907Z,17.92
2023-07-14T10:03:22.809Z,17.83
2023-07-14T10:05:58.832Z,17.66
2023-07-14T10:08:30.535Z,17.44
2023-07-14T10:11:01.178Z,17.42
2023-07-14T10:13:32.982Z,17.41
2023-07-14T10:16:09.048Z,17.27
2023-07-14T10:18:49.185Z,17.27
2023-07-14T10:21:25.113Z,17.27
2023-07-14T10:24:01.163Z,17.28
2023-07-14T10:26:31.727Z,17.35
2023-07-14T10:29:01.141Z,17.30
2023-07-14T10:31:39.081Z,17.23
2023-07-14T10:34:23.339Z,17.21
2023-07-14T10:36:55.023Z,17.05
2023-07-14T10:39:32.672Z,17.02
2023-07-14T10:42:02.395Z,17.06
2023-07-14T10:44:33.646Z,17.09
2023-07-14T10:47:04.929Z,17.21
2023-07-14T10:49:37.583Z,17.45
2023-07-14T10:52:12.934Z,17.79
2023-07-14T10:54:48.075Z,17.73
2023-07-14T10:57:34.389Z,17.37
2023-07-14T11:00:16.123Z,17.13
2023-07-14T11:02:48.048Z,17.15
2023-07-14T11:05:19.660Z,17.17
2023-07-14T11:07:49.629Z,17.22
2023-07-14T11:10:28.023Z,17.17
2023-07-14T11:13:04.953Z,17.10
2023-07-14T11:15:41.496Z,16.99
2023-07-14T11:18:20.222Z,16.99
2023-07-14T11:20:54.054Z,16.98
2023-07-14T11:23:27.686Z,16.97
2023-07-14T11:26:00.278Z,16.91
2023-07-14T11:28:38.517Z,16.88
2023-07-14T11:31:21.397Z,16.87
2023-07-14T11:33:55.809Z,16.86
2023-07-14T11:36:28.896Z,16.85
2023-07-14T11:38:59.581Z,16.87
2023-07-14T11:41:28.720Z,16.83
2023-07-14T11:43:57.875Z,16.69
2023-07-14T11:46:27.361Z,16.60
2023-07-14T11:49:06.257Z,16.58
2023-07-14T11:51:49.834Z,16.56
2023-07-14T11:54:21.618Z,16.57
2023-07-14T11:57:01.639Z,16.61
2023-07-14T11:59:31.584Z,16.61
2023-07-14T12:02:27.019Z,16.57
2023-07-14T12:05:05.819Z,16.48
2023-07-14T12:07:37.057Z,16.44
2023-07-14T12:10:14.874Z,16.39
2023-07-14T12:12:45.300Z,16.28
2023-07-14T12:15:44.525Z,16.24
2023-07-14T12:18:32.001Z,16.13
2023-07-14T12:21:23.473Z,16.01
2023-07-14T12:23:55.118Z,16.16
2023-07-14T12:26:34.360Z,16.33
2023-07-14T12:29:04.352Z,16.46
2023-07-14T12:31:36.978Z,16.41
2023-07-14T12:34:05.674Z,16.51
2023-07-14T12:36:34.417Z,16.70
2023-07-14T12:39:05.809Z,16.98
2023-07-14T12:41:38.541Z,17.19
2023-07-14T12:44:07.277Z,17.16
2023-07-14T12:46:37.778Z,17.13
2023-07-14T12:49:19.497Z,17.29
2023-07-14T12:51:48.129Z,17.37
2023-07-14T12:54:20.044Z,17.51
2023-07-14T12:56:49.907Z,17.46
2023-07-14T12:59:19.832Z,17.61
2023-07-14T13:01:49.093Z,17.69
2023-07-14T13:04:19.649Z,17.78
2023-07-14T13:06:49.828Z,17.76
2023-07-14T13:09:23.386Z,17.76
2023-07-14T13:11:54.115Z,17.85
2023-07-14T13:14:23.917Z,17.81
2023-07-14T13:16:54.172Z,17.79
2023-07-14T13:19:28.508Z,17.63
2023-07-14T13:22:01.566Z,17.63
2023-07-14T13:24:31.967Z,17.60
2023-07-14T13:27:04.008Z,17.57
2023-07-14T13:29:38.375Z,17.54
2023-07-14T13:32:19.427Z,17.52
2023-07-14T13:34:52.180Z,17.45
2023-07-14T13:37:20.969Z,17.39
2023-07-14T13:39:56.709Z,17.34
2023-07-14T13:42:30.662Z,17.29
2023-07-14T13:45:01.535Z,17.22
2023-07-14T13:47:44.929Z,17.21
2023-07-14T13:50:13.626Z,17.21
2023-07-14T13:52:42.167Z,17.20
2023-07-14T13:55:16.229Z,17.20
2023-07-14T13:57:49.298Z,17.22
2023-07-14T14:00:21.698Z,17.22
2023-07-14T14:02:51.543Z,17.26
2023-07-14T14:05:22.503Z,17.25
2023-07-14T14:07:53.166Z,17.29
2023-07-14T14:10:23.676Z,17.30
2023-07-14T14:12:54.578Z,17.28
2023-07-14T14:15:24.497Z,17.26
2023-07-14T14:17:57.894Z,17.21
2023-07-14T14:20:28.345Z,17.17
2023-07-14T14:22:57.288Z,17.20
2023-07-14T14:25:27.717Z,17.24
2023-07-14T14:27:58.360Z,17.15
2023-07-14T14:30:43.565Z,17.07
2023-07-14T14:33:15.082Z,17.09
2023-07-14T14:35:43.808Z,17.07
2023-07-14T14:38:27.440Z,17.09
2023-07-14T14:41:14.268Z,16.94
2023-07-14T14:43:45.087Z,16.87
2023-07-14T14:46:13.533Z,16.87
2023-07-14T14:48:42.942Z,16.81
2023-07-14T14:51:14.208Z,16.81
2023-07-14T14:53:43.738Z,16.78
2023-07-14T14:56:21.054Z,16.71
2023-07-14T14:58:54.456Z,16.67
2023-07-14T15:01:28.809Z,16.64
2023-07-14T15:03:57.168Z,16.59
2023-07-14T15:06:26.213Z,16.57
2023-07-14T15:08:54.789Z,16.56
2023-07-14T15:11:23.288Z,16.55
2023-07-14T15:13:53.098Z,16.54
2023-07-14T15:16:21.504Z,16.55
2023-07-14T15:18:50.344Z,16.58
2023-07-14T15:21:21.550Z,16.56
2023-07-14T15:23:51.578Z,16.55
2023-07-14T15:26:21.744Z,16.54
2023-07-14T15:28:50.664Z,16.55
2023-07-14T15:31:20.891Z,16.55
2023-07-14T15:33:50.267Z,16.58
2023-07-14T15:36:19.828Z,16.62
2023-07-14T15:38:48.715Z,16.65
2023-07-14T15:41:20.608Z,16.67
2023-07-14T15:43:51.938Z,16.64
2023-07-14T15:46:23.874Z,16.57
2023-07-14T15:48:55.031Z,16.60
2023-07-14T15:51:27.140Z,16.62
2023-07-14T15:53:57.533Z,16.60
2023-07-14T15:56:27.237Z,16.61
2023-07-14T15:58:55.875Z,16.58
2023-07-14T16:01:30.627Z,16.59
2023-07-14T16:04:01.135Z,16.61
2023-07-14T16:06:31.389Z,16.60
2023-07-14T16:09:00.381Z,16.58
2023-07-14T16:11:31.044Z,16.57
2023-07-14T16:14:01.521Z,16.57
2023-07-14T16:16:32.080Z,16.56
2023-07-14T16:19:01.221Z,16.59
2023-07-14T16:21:31.351Z,16.58
2023-07-14T16:24:01.659Z,16.55
2023-07-14T16:26:30.687Z,16.53
2023-07-14T16:28:59.129Z,16.53
2023-07-14T16:31:27.947Z,16.55
2023-07-14T16:33:57.851Z,16.54
2023-07-14T16:36:29.840Z,16.53
2023-07-14T16:39:02.653Z,16.53
2023-07-14T16:41:31.605Z,16.49
2023-07-14T16:44:00.007Z,16.48
2023-07-14T16:46:32.714Z,16.49
2023-07-14T16:49:03.289Z,16.44
2023-07-14T16:51:31.658Z,16.41
2023-07-14T16:54:01.242Z,16.37
2023-07-14T16:56:29.734Z,16.36
2023-07-14T16:58:58.268Z,16.32
2023-07-14T17:01:26.850Z,16.28
2023-07-14T17:03:55.920Z,16.27
2023-07-14T17:06:42.117Z,16.24
2023-07-14T17:09:18.040Z,16.20
2023-07-14T17:11:46.552Z,16.21
2023-07-14T17:14:17.681Z,16.20
2023-07-14T17:16:46.258Z,16.19
2023-07-14T17:19:16.407Z,16.18
2023-07-14T17:21:48.387Z,16.16
2023-07-14T17:24:19.654Z,16.14
2023-07-14T17:26:48.299Z,16.07
2023-07-14T17:29:25.414Z,16.04
2023-07-14T17:31:54.731Z,15.97
2023-07-14T17:34:23.258Z,15.79
2023-07-14T17:36:53.224Z,15.71
2023-07-14T17:39:39.795Z,15.62
2023-07-14T17:42:18.129Z,15.54
2023-07-14T17:44:46.514Z,15.48
2023-07-14T17:47:14.926Z,15.36
2023-07-14T17:49:43.853Z,15.29
2023-07-14T17:52:16.956Z,15.22
2023-07-14T17:54:46.218Z,15.14
2023-07-14T17:57:17.284Z,15.09
2023-07-14T17:59:51.787Z,15.07
2023-07-14T18:02:26.599Z,14.99
2023-07-14T18:04:55.275Z,14.94
2023-07-14T18:07:25.341Z,14.95
2023-07-14T18:09:53.926Z,14.97
2023-07-14T18:12:23.058Z,14.96
2023-07-14T18:14:51.707Z,14.88
2023-07-14T18:17:20.525Z,14.84
2023-07-14T18:19:50.175Z,14.84
2023-07-14T18:22:27.944Z,14.85
2023-07-14T18:24:57.690Z,14.82
2023-07-14T18:27:26.360Z,14.82
2023-07-14T18:29:56.208Z,14.82
2023-07-14T18:32:24.930Z,14.81
2023-07-14T18:34:53.372Z,14.89
2023-07-14T18:37:21.888Z,14.96
2023-07-14T18:39:52.684Z,15.02
2023-07-14T18:42:25.395Z,15.04
2023-07-14T18:44:54.268Z,15.05
2023-07-14T18:47:23.465Z,15.06
2023-07-14T18:49:53.160Z,15.12
2023-07-14T18:52:22.008Z,15.10
2023-07-14T18:54:51.773Z,15.13
2023-07-14T18:57:20.998Z,15.18
2023-07-14T18:59:50.145Z,15.24
2023-07-14T19:02:34.072Z,15.25
2023-07-14T19:05:09.340Z,15.19
2023-07-14T19:07:38.078Z,15.15
2023-07-14T19:10:13.267Z,15.24
2023-07-14T19:12:41.974Z,15.28
2023-07-14T19:15:19.530Z,15.37
2023-07-14T19:17:48.828Z,15.39
2023-07-14T19:20:20.141Z,15.39
2023-07-14T19:22:50.267Z,15.34
2023-07-14T19:25:21.676Z,15.45
2023-07-14T19:27:50.727Z,15.56
2023-07-14T19:30:23.134Z,15.64
2023-07-14T19:32:58.022Z,15.62
2023-07-14T19:35:26.910Z,15.57
2023-07-14T19:37:55.245Z,15.51
2023-07-14T19:40:27.097Z,15.48
2023-07-14T19:42:56.064Z,15.41
2023-07-14T19:45:26.195Z,15.36
2023-07-14T19:47:54.924Z,15.36
2023-07-14T19:50:24.390Z,15.33
2023-07-14T19:52:52.915Z,15.29
2023-07-14T19:55:25.454Z,15.25
2023-07-14T19:57:53.965Z,15.30
2023-07-14T20:00:24.281Z,15.30
2023-07-14T20:02:53.485Z,15.28
2023-07-14T20:05:25.780Z,15.26
2023-07-14T20:07:55.084Z,15.29
2023-07-14T20:10:25.078Z,15.30
2023-07-14T20:12:54.158Z,15.27
2023-07-14T20:15:25.268Z,15.20
2023-07-14T20:17:54.418Z,15.25
2023-07-14T20:20:23.010Z,15.26
2023-07-14T20:22:53.280Z,15.19
2023-07-14T20:25:23.464Z,15.23
2023-07-14T20:27:53.490Z,15.19
2023-07-14T20:30:24.336Z,15.16
2023-07-14T20:32:53.517Z,15.21
2023-07-14T20:35:25.724Z,15.18
2023-07-14T20:37:54.449Z,15.16
2023-07-14T20:40:23.175Z,15.16
2023-07-14T20:42:52.905Z,15.17
2023-07-14T20:45:23.300Z,15.16
2023-07-14T20:47:51.942Z,15.12
2023-07-14T20:50:22.525Z,15.10
2023-07-14T20:52:53.166Z,15.12
2023-07-14T20:55:28.676Z,15.09
2023-07-14T20:57:59.393Z,15.02
2023-07-14T21:00:27.859Z,15.00
2023-07-14T21:02:56.349Z,15.04
2023-07-14T21:05:25.186Z,15.08
2023-07-14T21:07:53.696Z,15.10
2023-07-14T21:10:23.024Z,15.08
2023-07-14T21:12:51.607Z,15.06
2023-07-14T21:15:21.416Z,15.05
2023-07-14T21:17:49.851Z,15.10
2023-07-14T21:20:18.519Z,15.06
2023-07-14T21:22:46.945Z,15.09
2023-07-14T21:25:17.186Z,15.15
2023-07-14T21:27:46.706Z,15.17
2023-07-14T21:30:15.777Z,15.18
2023-07-14T21:32:45.616Z,15.21
2023-07-14T21:35:19.482Z,15.22
2023-07-14T21:37:48.743Z,15.27
2023-07-14T21:40:18.686Z,15.27
2023-07-14T21:42:50.757Z,15.31
2023-07-14T21:45:20.750Z,15.31
2023-07-14T21:47:50.748Z,15.38
2023-07-14T21:50:19.359Z,15.39
2023-07-14T21:52:53.353Z,15.38
2023-07-14T21:55:21.933Z,15.35
2023-07-14T21:57:50.948Z,15.25
2023-07-14T22:00:20.428Z,15.22
2023-07-14T22:02:50.277Z,15.18
2023-07-14T22:05:19.338Z,15.18
2023-07-14T22:07:47.720Z,15.16
2023-07-14T22:10:18.458Z,15.18
2023-07-14T22:12:50.107Z,15.13
2023-07-14T22:15:23.776Z,15.16
2023-07-14T22:17:53.794Z,15.21
2023-07-14T22:20:22.493Z,15.17
2023-07-14T22:22:51.020Z,15.19
2023-07-14T22:25:19.715Z,15.12
2023-07-14T22:27:48.575Z,15.12
2023-07-14T22:30:17.579Z,15.05
2023-07-14T22:32:47.501Z,14.98
2023-07-14T22:35:19.089Z,14.99
2023-07-14T22:37:47.904Z,15.03
2023-07-14T22:40:17.523Z,15.02
2023-07-14T22:42:46.445Z,15.07
2023-07-14T22:45:16.276Z,15.11
2023-07-14T22:47:45.543Z,15.12
2023-07-14T22:50:17.271Z,15.09
2023-07-14T22:52:46.231Z,15.03
2023-07-14T22:55:18.195Z,15.00
2023-07-14T22:57:47.734Z,15.01
2023-07-14T23:00:18.436Z,15.02
2023-07-14T23:02:47.765Z,15.05
2023-07-14T23:05:19.391Z,15.04
2023-07-14T23:07:49.286Z,14.94
2023-07-14T23:10:18.604Z,15.01
2023-07-14T23:12:49.670Z,15.02
2023-07-14T23:15:19.970Z,14.94
2023-07-14T23:17:48.447Z,14.96
2023-07-14T23:20:18.584Z,14.94
2023-07-14T23:22:47.385Z,14.97
2023-07-14T23:25:20.827Z,15.01
2023-07-14T23:27:49.656Z,14.98
2023-07-14T23:30:18.044Z,14.99
2023-07-14T23:32:46.607Z,14.97
2023-07-14T23:35:20.111Z,15.02
2023-07-14T23:37:48.754Z,15.02
2023-07-14T23:40:19.223Z,14.99
2023-07-14T23:42:49.892Z,14.99
2023-07-14T23:45:23.399Z,15.04
2023-07-14T23:47:51.944Z,15.03
2023-07-14T23:50:22.651Z,15.02
2023-07-14T23:52:51.151Z,14.96
2023-07-14T23:55:23.084Z,14.93
2023-07-14T23:57:51.619Z,14.90
